sensor_id;sensor_type;location;lat;lon;timestamp;P1;durP1;ratioP1;P2;durP2;ratioP2
58615;SDS011;44385;51.992;4.206;2023-03-14T00:01:18;14.88;;;2.90;;
58615;SDS011;44385;51.992;4.206;2023-03-14T00:03:45;11.68;;;3.83;;
58615;SDS011;44385;51.992;4.206;2023-03-14T00:06:13;12.82;;;2.67;;
58615;SDS011;44385;51.992;4.206;2023-03-14T00:08:39;14.48;;;2.92;;
58615;SDS011;44385;51.992;4.206;2023-03-14T00:11:08;15.57;;;3.20;;
58615;SDS011;44385;51.992;4.206;2023-03-14T00:13:35;12.80;;;2.55;;
58615;SDS011;44385;51.992;4.206;2023-03-14T00:16:02;18.85;;;2.92;;
58615;SDS011;44385;51.992;4.206;2023-03-14T00:18:29;16.10;;;3.22;;
58615;SDS011;44385;51.992;4.206;2023-03-14T00:20:56;11.90;;;3.30;;
58615;SDS011;44385;51.992;4.206;2023-03-14T00:23:23;16.45;;;3.38;;
58615;SDS011;44385;51.992;4.206;2023-03-14T00:25:49;18.02;;;3.95;;
58615;SDS011;44385;51.992;4.206;2023-03-14T00:28:17;19.55;;;3.40;;
58615;SDS011;44385;51.992;4.206;2023-03-14T00:30:44;23.67;;;4.47;;
58615;SDS011;44385;51.992;4.206;2023-03-14T00:33:10;24.35;;;4.55;;
58615;SDS011;44385;51.992;4.206;2023-03-14T00:35:37;17.02;;;3.47;;
58615;SDS011;44385;51.992;4.206;2023-03-14T00:38:03;18.85;;;3.70;;
58615;SDS011;44385;51.992;4.206;2023-03-14T00:40:29;11.27;;;3.05;;
58615;SDS011;44385;51.992;4.206;2023-03-14T00:42:56;18.02;;;3.67;;
58615;SDS011;44385;51.992;4.206;2023-03-14T00:45:24;25.10;;;4.72;;
58615;SDS011;44385;51.992;4.206;2023-03-14T00:47:53;17.92;;;4.05;;
58615;SDS011;44385;51.992;4.206;2023-03-14T00:50:19;23.42;;;4.22;;
58615;SDS011;44385;51.992;4.206;2023-03-14T00:52:46;19.75;;;3.65;;
58615;SDS011;44385;51.992;4.206;2023-03-14T00:55:14;22.30;;;4.05;;
58615;SDS011;44385;51.992;4.206;2023-03-14T00:57:40;23.08;;;4.55;;
58615;SDS011;44385;51.992;4.206;2023-03-14T01:00:08;22.48;;;4.43;;
58615;SDS011;44385;51.992;4.206;2023-03-14T01:02:39;23.92;;;4.60;;
58615;SDS011;44385;51.992;4.206;2023-03-14T01:05:06;14.73;;;3.80;;
58615;SDS011;44385;51.992;4.206;2023-03-14T01:10:01;15.52;;;3.05;;
58615;SDS011;44385;51.992;4.206;2023-03-14T01:12:28;12.57;;;2.75;;
58615;SDS011;44385;51.992;4.206;2023-03-14T01:14:54;17.85;;;3.80;;
58615;SDS011;44385;51.992;4.206;2023-03-14T01:17:21;23.98;;;3.83;;
58615;SDS011;44385;51.992;4.206;2023-03-14T01:19:49;11.82;;;3.92;;
58615;SDS011;44385;51.992;4.206;2023-03-14T01:22:16;11.00;;;2.28;;
58615;SDS011;44385;51.992;4.206;2023-03-14T01:24:42;10.65;;;2.35;;
58615;SDS011;44385;51.992;4.206;2023-03-14T01:27:09;12.90;;;2.40;;
58615;SDS011;44385;51.992;4.206;2023-03-14T01:29:36;10.93;;;2.83;;
58615;SDS011;44385;51.992;4.206;2023-03-14T01:32:03;16.55;;;3.78;;
58615;SDS011;44385;51.992;4.206;2023-03-14T01:34:29;16.80;;;3.55;;
58615;SDS011;44385;51.992;4.206;2023-03-14T01:36:57;9.80;;;2.38;;
58615;SDS011;44385;51.992;4.206;2023-03-14T01:39:23;13.07;;;2.83;;
58615;SDS011;44385;51.992;4.206;2023-03-14T01:41:50;12.85;;;2.80;;
58615;SDS011;44385;51.992;4.206;2023-03-14T01:44:16;12.68;;;3.17;;
58615;SDS011;44385;51.992;4.206;2023-03-14T01:46:43;9.00;;;2.20;;
58615;SDS011;44385;51.992;4.206;2023-03-14T01:49:15;12.90;;;3.13;;
58615;SDS011;44385;51.992;4.206;2023-03-14T01:51:44;12.60;;;2.97;;
58615;SDS011;44385;51.992;4.206;2023-03-14T01:54:16;12.50;;;3.33;;
58615;SDS011;44385;51.992;4.206;2023-03-14T01:56:44;10.25;;;2.53;;
58615;SDS011;44385;51.992;4.206;2023-03-14T01:59:12;8.82;;;3.17;;
58615;SDS011;44385;51.992;4.206;2023-03-14T02:01:39;10.18;;;2.65;;
58615;SDS011;44385;51.992;4.206;2023-03-14T02:04:08;13.38;;;3.35;;
58615;SDS011;44385;51.992;4.206;2023-03-14T02:06:38;15.55;;;3.03;;
58615;SDS011;44385;51.992;4.206;2023-03-14T02:09:06;14.23;;;2.55;;
58615;SDS011;44385;51.992;4.206;2023-03-14T02:11:35;12.40;;;2.45;;
58615;SDS011;44385;51.992;4.206;2023-03-14T02:14:01;14.60;;;3.58;;
58615;SDS011;44385;51.992;4.206;2023-03-14T02:16:28;10.32;;;2.38;;
58615;SDS011;44385;51.992;4.206;2023-03-14T02:18:54;10.38;;;2.30;;
58615;SDS011;44385;51.992;4.206;2023-03-14T02:21:23;20.52;;;3.35;;
58615;SDS011;44385;51.992;4.206;2023-03-14T02:23:51;11.88;;;3.00;;
58615;SDS011;44385;51.992;4.206;2023-03-14T02:26:20;9.53;;;2.57;;
58615;SDS011;44385;51.992;4.206;2023-03-14T02:28:49;7.75;;;2.08;;
58615;SDS011;44385;51.992;4.206;2023-03-14T02:31:15;9.10;;;2.42;;
58615;SDS011;44385;51.992;4.206;2023-03-14T02:33:42;10.93;;;3.05;;
58615;SDS011;44385;51.992;4.206;2023-03-14T02:36:09;11.38;;;3.17;;
58615;SDS011;44385;51.992;4.206;2023-03-14T02:38:39;11.77;;;2.80;;
58615;SDS011;44385;51.992;4.206;2023-03-14T02:41:06;12.43;;;2.72;;
58615;SDS011;44385;51.992;4.206;2023-03-14T02:43:32;11.38;;;2.38;;
58615;SDS011;44385;51.992;4.206;2023-03-14T02:46:00;9.30;;;2.50;;
58615;SDS011;44385;51.992;4.206;2023-03-14T02:48:28;12.07;;;3.08;;
58615;SDS011;44385;51.992;4.206;2023-03-14T02:50:56;14.20;;;3.20;;
58615;SDS011;44385;51.992;4.206;2023-03-14T02:53:24;9.15;;;1.90;;
58615;SDS011;44385;51.992;4.206;2023-03-14T02:55:51;11.05;;;3.17;;
58615;SDS011;44385;51.992;4.206;2023-03-14T02:58:18;12.45;;;2.72;;
58615;SDS011;44385;51.992;4.206;2023-03-14T03:00:45;9.77;;;2.90;;
58615;SDS011;44385;51.992;4.206;2023-03-14T03:03:13;9.93;;;2.58;;
58615;SDS011;44385;51.992;4.206;2023-03-14T03:05:40;13.88;;;2.67;;
58615;SDS011;44385;51.992;4.206;2023-03-14T03:08:07;13.07;;;4.03;;
58615;SDS011;44385;51.992;4.206;2023-03-14T03:10:34;9.18;;;3.45;;
58615;SDS011;44385;51.992;4.206;2023-03-14T03:13:00;13.23;;;3.83;;
58615;SDS011;44385;51.992;4.206;2023-03-14T03:15:28;14.85;;;3.15;;
58615;SDS011;44385;51.992;4.206;2023-03-14T03:17:54;9.55;;;3.40;;
58615;SDS011;44385;51.992;4.206;2023-03-14T03:20:22;10.90;;;3.22;;
58615;SDS011;44385;51.992;4.206;2023-03-14T03:22:49;18.02;;;4.00;;
58615;SDS011;44385;51.992;4.206;2023-03-14T03:25:16;12.88;;;2.60;;
58615;SDS011;44385;51.992;4.206;2023-03-14T03:27:42;10.35;;;3.30;;
58615;SDS011;44385;51.992;4.206;2023-03-14T03:30:09;9.57;;;2.95;;
58615;SDS011;44385;51.992;4.206;2023-03-14T03:32:36;10.05;;;3.05;;
58615;SDS011;44385;51.992;4.206;2023-03-14T03:35:03;15.48;;;4.65;;
58615;SDS011;44385;51.992;4.206;2023-03-14T03:37:31;14.32;;;4.05;;
58615;SDS011;44385;51.992;4.206;2023-03-14T03:39:58;9.30;;;4.05;;
58615;SDS011;44385;51.992;4.206;2023-03-14T03:42:25;10.35;;;4.07;;
58615;SDS011;44385;51.992;4.206;2023-03-14T03:44:52;12.20;;;3.13;;
58615;SDS011;44385;51.992;4.206;2023-03-14T03:47:18;10.70;;;2.97;;
58615;SDS011;44385;51.992;4.206;2023-03-14T03:49:45;17.40;;;3.55;;
58615;SDS011;44385;51.992;4.206;2023-03-14T03:52:11;7.85;;;2.92;;
58615;SDS011;44385;51.992;4.206;2023-03-14T03:54:39;8.75;;;2.63;;
58615;SDS011;44385;51.992;4.206;2023-03-14T03:57:05;13.85;;;2.75;;
58615;SDS011;44385;51.992;4.206;2023-03-14T03:59:32;12.27;;;3.25;;
58615;SDS011;44385;51.992;4.206;2023-03-14T04:01:58;9.57;;;3.17;;
58615;SDS011;44385;51.992;4.206;2023-03-14T04:04:25;11.50;;;3.00;;
58615;SDS011;44385;51.992;4.206;2023-03-14T04:06:51;11.20;;;2.65;;
58615;SDS011;44385;51.992;4.206;2023-03-14T04:09:18;13.57;;;2.90;;
58615;SDS011;44385;51.992;4.206;2023-03-14T04:11:46;15.90;;;3.53;;
58615;SDS011;44385;51.992;4.206;2023-03-14T04:14:13;15.83;;;3.50;;
58615;SDS011;44385;51.992;4.206;2023-03-14T04:16:39;13.20;;;3.15;;
58615;SDS011;44385;51.992;4.206;2023-03-14T04:19:06;13.88;;;3.83;;
58615;SDS011;44385;51.992;4.206;2023-03-14T04:21:32;11.20;;;3.95;;
58615;SDS011;44385;51.992;4.206;2023-03-14T04:23:59;18.02;;;3.80;;
58615;SDS011;44385;51.992;4.206;2023-03-14T04:26:25;12.38;;;3.25;;
58615;SDS011;44385;51.992;4.206;2023-03-14T04:28:53;13.85;;;3.30;;
58615;SDS011;44385;51.992;4.206;2023-03-14T04:31:20;14.30;;;4.35;;
58615;SDS011;44385;51.992;4.206;2023-03-14T04:33:47;10.13;;;3.13;;
58615;SDS011;44385;51.992;4.206;2023-03-14T04:36:14;14.63;;;3.60;;
58615;SDS011;44385;51.992;4.206;2023-03-14T04:38:40;13.40;;;3.70;;
58615;SDS011;44385;51.992;4.206;2023-03-14T04:41:07;10.23;;;3.63;;
58615;SDS011;44385;51.992;4.206;2023-03-14T04:43:33;11.38;;;3.25;;
58615;SDS011;44385;51.992;4.206;2023-03-14T04:46:01;11.10;;;3.22;;
58615;SDS011;44385;51.992;4.206;2023-03-14T04:48:27;16.67;;;3.50;;
58615;SDS011;44385;51.992;4.206;2023-03-14T04:50:54;10.48;;;3.40;;
58615;SDS011;44385;51.992;4.206;2023-03-14T04:53:21;10.25;;;3.38;;
58615;SDS011;44385;51.992;4.206;2023-03-14T04:55:48;9.02;;;3.10;;
58615;SDS011;44385;51.992;4.206;2023-03-14T04:58:14;14.25;;;4.22;;
58615;SDS011;44385;51.992;4.206;2023-03-14T05:00:41;8.07;;;3.40;;
58615;SDS011;44385;51.992;4.206;2023-03-14T05:03:08;14.00;;;4.10;;
58615;SDS011;44385;51.992;4.206;2023-03-14T05:05:35;7.95;;;3.42;;
58615;SDS011;44385;51.992;4.206;2023-03-14T05:08:01;5.15;;;2.90;;
58615;SDS011;44385;51.992;4.206;2023-03-14T05:10:28;12.63;;;2.70;;
58615;SDS011;44385;51.992;4.206;2023-03-14T05:12:54;25.30;;;4.13;;
58615;SDS011;44385;51.992;4.206;2023-03-14T05:15:21;15.23;;;3.63;;
58615;SDS011;44385;51.992;4.206;2023-03-14T05:17:47;12.82;;;2.45;;
58615;SDS011;44385;51.992;4.206;2023-03-14T05:20:15;16.88;;;3.08;;
58615;SDS011;44385;51.992;4.206;2023-03-14T05:22:42;17.08;;;2.92;;
58615;SDS011;44385;51.992;4.206;2023-03-14T05:25:08;21.95;;;3.78;;
58615;SDS011;44385;51.992;4.206;2023-03-14T05:27:35;16.25;;;2.55;;
58615;SDS011;44385;51.992;4.206;2023-03-14T05:30:02;25.35;;;3.22;;
58615;SDS011;44385;51.992;4.206;2023-03-14T05:32:28;23.20;;;3.80;;
58615;SDS011;44385;51.992;4.206;2023-03-14T05:34:55;23.73;;;3.13;;
58615;SDS011;44385;51.992;4.206;2023-03-14T05:37:25;23.90;;;3.20;;
58615;SDS011;44385;51.992;4.206;2023-03-14T05:39:51;14.90;;;3.08;;
58615;SDS011;44385;51.992;4.206;2023-03-14T05:42:18;19.00;;;2.45;;
58615;SDS011;44385;51.992;4.206;2023-03-14T05:44:44;15.93;;;2.30;;
58615;SDS011;44385;51.992;4.206;2023-03-14T05:47:11;11.63;;;2.25;;
58615;SDS011;44385;51.992;4.206;2023-03-14T05:49:37;14.57;;;2.67;;
58615;SDS011;44385;51.992;4.206;2023-03-14T05:52:03;15.50;;;2.33;;
58615;SDS011;44385;51.992;4.206;2023-03-14T05:54:31;14.10;;;2.53;;
58615;SDS011;44385;51.992;4.206;2023-03-14T05:56:58;9.13;;;2.08;;
58615;SDS011;44385;51.992;4.206;2023-03-14T05:59:24;19.67;;;2.30;;
58615;SDS011;44385;51.992;4.206;2023-03-14T06:01:51;14.88;;;2.58;;
58615;SDS011;44385;51.992;4.206;2023-03-14T06:04:17;14.48;;;2.67;;
58615;SDS011;44385;51.992;4.206;2023-03-14T06:06:43;16.42;;;2.97;;
58615;SDS011;44385;51.992;4.206;2023-03-14T06:09:13;18.67;;;2.70;;
58615;SDS011;44385;51.992;4.206;2023-03-14T06:11:40;16.42;;;2.58;;
58615;SDS011;44385;51.992;4.206;2023-03-14T06:14:07;13.25;;;1.85;;
58615;SDS011;44385;51.992;4.206;2023-03-14T06:16:33;7.85;;;1.90;;
58615;SDS011;44385;51.992;4.206;2023-03-14T06:19:00;14.40;;;2.10;;
58615;SDS011;44385;51.992;4.206;2023-03-14T06:21:26;16.80;;;2.50;;
58615;SDS011;44385;51.992;4.206;2023-03-14T06:23:53;19.13;;;3.40;;
58615;SDS011;44385;51.992;4.206;2023-03-14T06:26:19;10.70;;;2.28;;
58615;SDS011;44385;51.992;4.206;2023-03-14T06:28:51;13.02;;;2.33;;
58615;SDS011;44385;51.992;4.206;2023-03-14T06:31:18;10.03;;;2.67;;
58615;SDS011;44385;51.992;4.206;2023-03-14T06:33:44;20.70;;;3.05;;
58615;SDS011;44385;51.992;4.206;2023-03-14T06:36:13;12.70;;;2.25;;
58615;SDS011;44385;51.992;4.206;2023-03-14T06:38:39;16.38;;;2.80;;
58615;SDS011;44385;51.992;4.206;2023-03-14T06:41:06;16.23;;;2.75;;
58615;SDS011;44385;51.992;4.206;2023-03-14T06:43:33;14.18;;;2.40;;
58615;SDS011;44385;51.992;4.206;2023-03-14T06:46:01;14.60;;;3.13;;
58615;SDS011;44385;51.992;4.206;2023-03-14T06:48:27;16.88;;;2.65;;
58615;SDS011;44385;51.992;4.206;2023-03-14T06:50:53;13.40;;;2.20;;
58615;SDS011;44385;51.992;4.206;2023-03-14T06:53:25;11.82;;;2.25;;
58615;SDS011;44385;51.992;4.206;2023-03-14T06:55:52;12.52;;;2.05;;
58615;SDS011;44385;51.992;4.206;2023-03-14T06:58:18;8.75;;;1.65;;
58615;SDS011;44385;51.992;4.206;2023-03-14T07:00:45;7.80;;;1.60;;
58615;SDS011;44385;51.992;4.206;2023-03-14T07:03:13;8.48;;;1.60;;
58615;SDS011;44385;51.992;4.206;2023-03-14T07:05:40;5.15;;;1.50;;
58615;SDS011;44385;51.992;4.206;2023-03-14T07:08:06;8.98;;;1.50;;
58615;SDS011;44385;51.992;4.206;2023-03-14T07:10:33;9.18;;;1.65;;
58615;SDS011;44385;51.992;4.206;2023-03-14T07:12:59;10.45;;;1.98;;
58615;SDS011;44385;51.992;4.206;2023-03-14T07:15:26;6.95;;;1.92;;
58615;SDS011;44385;51.992;4.206;2023-03-14T07:17:52;13.70;;;2.15;;
58615;SDS011;44385;51.992;4.206;2023-03-14T07:20:20;9.48;;;1.83;;
58615;SDS011;44385;51.992;4.206;2023-03-14T07:22:50;10.00;;;2.58;;
58615;SDS011;44385;51.992;4.206;2023-03-14T07:25:16;12.00;;;1.83;;
58615;SDS011;44385;51.992;4.206;2023-03-14T07:27:43;13.05;;;2.70;;
58615;SDS011;44385;51.992;4.206;2023-03-14T07:30:10;9.25;;;1.98;;
58615;SDS011;44385;51.992;4.206;2023-03-14T07:32:36;13.38;;;2.47;;
58615;SDS011;44385;51.992;4.206;2023-03-14T07:35:03;13.20;;;3.00;;
58615;SDS011;44385;51.992;4.206;2023-03-14T07:37:31;18.00;;;2.95;;
58615;SDS011;44385;51.992;4.206;2023-03-14T07:39:57;21.42;;;3.30;;
58615;SDS011;44385;51.992;4.206;2023-03-14T07:42:24;12.70;;;2.78;;
58615;SDS011;44385;51.992;4.206;2023-03-14T07:44:50;15.32;;;2.58;;
58615;SDS011;44385;51.992;4.206;2023-03-14T07:47:17;12.40;;;3.15;;
58615;SDS011;44385;51.992;4.206;2023-03-14T07:49:43;14.02;;;2.05;;
58615;SDS011;44385;51.992;4.206;2023-03-14T07:52:10;17.50;;;2.75;;
58615;SDS011;44385;51.992;4.206;2023-03-14T07:54:37;13.05;;;2.38;;
58615;SDS011;44385;51.992;4.206;2023-03-14T07:57:04;12.63;;;2.55;;
58615;SDS011;44385;51.992;4.206;2023-03-14T07:59:30;18.35;;;3.20;;
58615;SDS011;44385;51.992;4.206;2023-03-14T08:01:57;10.90;;;2.50;;
58615;SDS011;44385;51.992;4.206;2023-03-14T08:04:26;15.50;;;2.00;;
58615;SDS011;44385;51.992;4.206;2023-03-14T08:06:53;14.27;;;2.08;;
58615;SDS011;44385;51.992;4.206;2023-03-14T08:09:20;9.00;;;1.88;;
58615;SDS011;44385;51.992;4.206;2023-03-14T08:11:48;8.98;;;1.52;;
58615;SDS011;44385;51.992;4.206;2023-03-14T08:14:15;5.00;;;1.70;;
58615;SDS011;44385;51.992;4.206;2023-03-14T08:16:41;8.95;;;1.40;;
58615;SDS011;44385;51.992;4.206;2023-03-14T08:19:08;7.93;;;1.60;;
58615;SDS011;44385;51.992;4.206;2023-03-14T08:21:34;7.25;;;2.13;;
58615;SDS011;44385;51.992;4.206;2023-03-14T08:24:00;8.65;;;1.42;;
58615;SDS011;44385;51.992;4.206;2023-03-14T08:26:27;8.90;;;1.90;;
58615;SDS011;44385;51.992;4.206;2023-03-14T08:28:54;8.43;;;1.80;;
58615;SDS011;44385;51.992;4.206;2023-03-14T08:31:21;9.43;;;2.03;;
58615;SDS011;44385;51.992;4.206;2023-03-14T08:33:47;8.95;;;3.63;;
58615;SDS011;44385;51.992;4.206;2023-03-14T08:36:14;11.73;;;1.92;;
58615;SDS011;44385;51.992;4.206;2023-03-14T08:38:40;9.70;;;1.73;;
58615;SDS011;44385;51.992;4.206;2023-03-14T08:41:08;9.68;;;2.50;;
58615;SDS011;44385;51.992;4.206;2023-03-14T08:43:34;10.88;;;2.08;;
58615;SDS011;44385;51.992;4.206;2023-03-14T08:46:02;10.15;;;1.65;;
58615;SDS011;44385;51.992;4.206;2023-03-14T08:48:29;12.27;;;2.40;;
58615;SDS011;44385;51.992;4.206;2023-03-14T08:50:55;14.02;;;2.55;;
58615;SDS011;44385;51.992;4.206;2023-03-14T08:53:22;10.20;;;2.13;;
58615;SDS011;44385;51.992;4.206;2023-03-14T08:55:51;14.00;;;3.00;;
58615;SDS011;44385;51.992;4.206;2023-03-14T08:58:18;10.88;;;2.45;;
58615;SDS011;44385;51.992;4.206;2023-03-14T09:00:44;13.05;;;3.20;;
58615;SDS011;44385;51.992;4.206;2023-03-14T09:03:12;18.58;;;3.28;;
58615;SDS011;44385;51.992;4.206;2023-03-14T09:05:39;14.88;;;3.67;;
58615;SDS011;44385;51.992;4.206;2023-03-14T09:08:06;19.17;;;3.67;;
58615;SDS011;44385;51.992;4.206;2023-03-14T09:10:32;17.15;;;3.45;;
58615;SDS011;44385;51.992;4.206;2023-03-14T09:12:58;16.70;;;3.08;;
58615;SDS011;44385;51.992;4.206;2023-03-14T09:15:25;19.30;;;3.95;;
58615;SDS011;44385;51.992;4.206;2023-03-14T09:17:51;18.95;;;3.58;;
58615;SDS011;44385;51.992;4.206;2023-03-14T09:20:20;15.35;;;3.33;;
58615;SDS011;44385;51.992;4.206;2023-03-14T09:22:47;15.43;;;3.10;;
58615;SDS011;44385;51.992;4.206;2023-03-14T09:25:13;19.67;;;4.28;;
58615;SDS011;44385;51.992;4.206;2023-03-14T09:27:39;14.93;;;3.45;;
58615;SDS011;44385;51.992;4.206;2023-03-14T09:30:06;17.45;;;3.13;;
58615;SDS011;44385;51.992;4.206;2023-03-14T09:32:33;16.65;;;3.10;;
58615;SDS011;44385;51.992;4.206;2023-03-14T09:34:59;20.70;;;3.90;;
58615;SDS011;44385;51.992;4.206;2023-03-14T09:37:27;14.35;;;3.67;;
58615;SDS011;44385;51.992;4.206;2023-03-14T09:39:53;14.40;;;2.88;;
58615;SDS011;44385;51.992;4.206;2023-03-14T09:42:24;20.52;;;3.53;;
58615;SDS011;44385;51.992;4.206;2023-03-14T09:44:53;21.05;;;3.85;;
58615;SDS011;44385;51.992;4.206;2023-03-14T09:47:21;15.67;;;3.33;;
58615;SDS011;44385;51.992;4.206;2023-03-14T09:49:49;22.52;;;4.70;;
58615;SDS011;44385;51.992;4.206;2023-03-14T09:52:16;16.75;;;3.70;;
58615;SDS011;44385;51.992;4.206;2023-03-14T09:54:46;23.35;;;5.00;;
58615;SDS011;44385;51.992;4.206;2023-03-14T09:59:39;24.60;;;5.32;;
58615;SDS011;44385;51.992;4.206;2023-03-14T10:02:13;24.00;;;5.18;;
58615;SDS011;44385;51.992;4.206;2023-03-14T10:04:42;25.42;;;6.20;;
58615;SDS011;44385;51.992;4.206;2023-03-14T10:07:11;26.65;;;4.72;;
58615;SDS011;44385;51.992;4.206;2023-03-14T10:12:08;16.52;;;4.97;;
58615;SDS011;44385;51.992;4.206;2023-03-14T10:14:36;23.13;;;4.90;;
58615;SDS011;44385;51.992;4.206;2023-03-14T10:17:06;21.48;;;3.97;;
58615;SDS011;44385;51.992;4.206;2023-03-14T10:19:33;23.88;;;3.97;;
58615;SDS011;44385;51.992;4.206;2023-03-14T10:22:01;24.27;;;4.07;;
58615;SDS011;44385;51.992;4.206;2023-03-14T10:24:29;24.00;;;5.25;;
58615;SDS011;44385;51.992;4.206;2023-03-14T10:26:57;25.73;;;5.30;;
58615;SDS011;44385;51.992;4.206;2023-03-14T10:29:27;25.88;;;4.40;;
58615;SDS011;44385;51.992;4.206;2023-03-14T10:31:54;30.70;;;4.82;;
58615;SDS011;44385;51.992;4.206;2023-03-14T10:34:22;19.75;;;4.38;;
58615;SDS011;44385;51.992;4.206;2023-03-14T10:36:51;29.42;;;4.47;;
58615;SDS011;44385;51.992;4.206;2023-03-14T10:39:22;21.58;;;4.85;;
58615;SDS011;44385;51.992;4.206;2023-03-14T10:41:52;23.77;;;5.15;;
58615;SDS011;44385;51.992;4.206;2023-03-14T10:44:19;24.33;;;4.57;;
58615;SDS011;44385;51.992;4.206;2023-03-14T10:46:50;20.70;;;4.78;;
58615;SDS011;44385;51.992;4.206;2023-03-14T10:49:23;21.38;;;5.20;;
58615;SDS011;44385;51.992;4.206;2023-03-14T10:54:19;24.60;;;4.20;;
58615;SDS011;44385;51.992;4.206;2023-03-14T10:56:46;19.92;;;4.40;;
58615;SDS011;44385;51.992;4.206;2023-03-14T10:59:21;15.60;;;4.72;;
58615;SDS011;44385;51.992;4.206;2023-03-14T11:01:50;13.50;;;3.63;;
58615;SDS011;44385;51.992;4.206;2023-03-14T11:04:22;18.35;;;3.75;;
58615;SDS011;44385;51.992;4.206;2023-03-14T11:06:53;17.25;;;3.20;;
58615;SDS011;44385;51.992;4.206;2023-03-14T11:09:22;20.23;;;3.25;;
58615;SDS011;44385;51.992;4.206;2023-03-14T11:11:52;20.17;;;3.83;;
58615;SDS011;44385;51.992;4.206;2023-03-14T11:14:22;13.52;;;3.20;;
58615;SDS011;44385;51.992;4.206;2023-03-14T11:16:53;9.38;;;2.95;;
58615;SDS011;44385;51.992;4.206;2023-03-14T11:19:25;12.07;;;3.28;;
58615;SDS011;44385;51.992;4.206;2023-03-14T11:21:54;12.95;;;3.03;;
58615;SDS011;44385;51.992;4.206;2023-03-14T11:24:32;12.20;;;2.70;;
58615;SDS011;44385;51.992;4.206;2023-03-14T11:27:03;14.32;;;3.22;;
58615;SDS011;44385;51.992;4.206;2023-03-14T11:29:35;9.43;;;2.90;;
58615;SDS011;44385;51.992;4.206;2023-03-14T11:32:08;12.57;;;2.75;;
58615;SDS011;44385;51.992;4.206;2023-03-14T11:34:38;14.13;;;3.35;;
58615;SDS011;44385;51.992;4.206;2023-03-14T11:37:06;13.98;;;3.83;;
58615;SDS011;44385;51.992;4.206;2023-03-14T11:39:35;15.13;;;3.63;;
58615;SDS011;44385;51.992;4.206;2023-03-14T11:42:02;13.70;;;3.45;;
58615;SDS011;44385;51.992;4.206;2023-03-14T11:44:30;18.30;;;3.40;;
58615;SDS011;44385;51.992;4.206;2023-03-14T11:47:00;11.23;;;3.17;;
58615;SDS011;44385;51.992;4.206;2023-03-14T11:49:32;13.65;;;3.03;;
58615;SDS011;44385;51.992;4.206;2023-03-14T11:52:01;12.40;;;3.08;;
58615;SDS011;44385;51.992;4.206;2023-03-14T11:54:31;19.98;;;4.18;;
58615;SDS011;44385;51.992;4.206;2023-03-14T11:57:00;14.13;;;3.13;;
58615;SDS011;44385;51.992;4.206;2023-03-14T11:59:29;11.63;;;3.13;;
58615;SDS011;44385;51.992;4.206;2023-03-14T12:01:57;13.13;;;3.28;;
58615;SDS011;44385;51.992;4.206;2023-03-14T12:04:39;17.85;;;3.20;;
58615;SDS011;44385;51.992;4.206;2023-03-14T12:07:08;8.52;;;2.30;;
58615;SDS011;44385;51.992;4.206;2023-03-14T12:09:38;11.13;;;2.90;;
58615;SDS011;44385;51.992;4.206;2023-03-14T12:12:05;10.57;;;2.70;;
58615;SDS011;44385;51.992;4.206;2023-03-14T12:14:33;11.70;;;3.00;;
58615;SDS011;44385;51.992;4.206;2023-03-14T12:17:04;15.05;;;3.25;;
58615;SDS011;44385;51.992;4.206;2023-03-14T12:19:32;8.95;;;2.88;;
58615;SDS011;44385;51.992;4.206;2023-03-14T12:22:02;8.43;;;2.30;;
58615;SDS011;44385;51.992;4.206;2023-03-14T12:24:33;9.70;;;2.50;;
58615;SDS011;44385;51.992;4.206;2023-03-14T12:27:00;7.53;;;2.45;;
58615;SDS011;44385;51.992;4.206;2023-03-14T12:29:27;8.40;;;2.45;;
58615;SDS011;44385;51.992;4.206;2023-03-14T12:32:07;9.95;;;2.15;;
58615;SDS011;44385;51.992;4.206;2023-03-14T12:34:33;10.55;;;2.28;;
58615;SDS011;44385;51.992;4.206;2023-03-14T12:37:16;11.07;;;1.95;;
58615;SDS011;44385;51.992;4.206;2023-03-14T12:39:45;10.82;;;2.33;;
58615;SDS011;44385;51.992;4.206;2023-03-14T12:42:15;7.97;;;1.75;;
58615;SDS011;44385;51.992;4.206;2023-03-14T12:44:45;10.13;;;2.10;;
58615;SDS011;44385;51.992;4.206;2023-03-14T12:49:54;8.48;;;1.70;;
58615;SDS011;44385;51.992;4.206;2023-03-14T12:52:30;5.25;;;1.65;;
58615;SDS011;44385;51.992;4.206;2023-03-14T12:54:59;5.22;;;1.40;;
58615;SDS011;44385;51.992;4.206;2023-03-14T12:57:28;9.77;;;2.17;;
58615;SDS011;44385;51.992;4.206;2023-03-14T12:59:59;10.10;;;1.80;;
58615;SDS011;44385;51.992;4.206;2023-03-14T13:02:28;8.38;;;1.50;;
58615;SDS011;44385;51.992;4.206;2023-03-14T13:05:02;7.90;;;1.95;;
58615;SDS011;44385;51.992;4.206;2023-03-14T13:07:32;9.82;;;1.92;;
58615;SDS011;44385;51.992;4.206;2023-03-14T13:15:19;10.35;;;1.95;;
58615;SDS011;44385;51.992;4.206;2023-03-14T13:17:48;8.90;;;2.20;;
58615;SDS011;44385;51.992;4.206;2023-03-14T13:20:16;9.23;;;2.05;;
58615;SDS011;44385;51.992;4.206;2023-03-14T13:22:47;10.52;;;2.08;;
58615;SDS011;44385;51.992;4.206;2023-03-14T13:25:14;10.40;;;2.17;;
58615;SDS011;44385;51.992;4.206;2023-03-14T13:27:41;11.30;;;2.13;;
58615;SDS011;44385;51.992;4.206;2023-03-14T13:30:15;12.20;;;2.20;;
58615;SDS011;44385;51.992;4.206;2023-03-14T13:32:42;9.75;;;2.22;;
58615;SDS011;44385;51.992;4.206;2023-03-14T13:35:14;9.50;;;1.92;;
58615;SDS011;44385;51.992;4.206;2023-03-14T13:37:40;8.98;;;2.30;;
58615;SDS011;44385;51.992;4.206;2023-03-14T13:40:18;8.80;;;2.00;;
58615;SDS011;44385;51.992;4.206;2023-03-14T13:42:48;11.25;;;1.88;;
58615;SDS011;44385;51.992;4.206;2023-03-14T13:45:14;9.13;;;1.98;;
58615;SDS011;44385;51.992;4.206;2023-03-14T13:47:41;11.90;;;1.98;;
58615;SDS011;44385;51.992;4.206;2023-03-14T13:50:12;16.40;;;3.08;;
58615;SDS011;44385;51.992;4.206;2023-03-14T13:52:39;10.30;;;2.22;;
58615;SDS011;44385;51.992;4.206;2023-03-14T13:55:12;10.18;;;2.47;;
58615;SDS011;44385;51.992;4.206;2023-03-14T13:57:45;8.98;;;2.05;;
58615;SDS011;44385;51.992;4.206;2023-03-14T14:00:19;10.48;;;2.13;;
58615;SDS011;44385;51.992;4.206;2023-03-14T14:02:46;11.82;;;2.38;;
58615;SDS011;44385;51.992;4.206;2023-03-14T14:05:13;15.32;;;2.45;;
58615;SDS011;44385;51.992;4.206;2023-03-14T14:07:40;11.75;;;2.20;;
58615;SDS011;44385;51.992;4.206;2023-03-14T14:10:08;9.88;;;2.33;;
58615;SDS011;44385;51.992;4.206;2023-03-14T14:15:04;12.85;;;2.75;;
58615;SDS011;44385;51.992;4.206;2023-03-14T14:19:58;12.30;;;2.20;;
58615;SDS011;44385;51.992;4.206;2023-03-14T14:22:25;9.05;;;2.65;;
58615;SDS011;44385;51.992;4.206;2023-03-14T14:24:52;8.52;;;2.08;;
58615;SDS011;44385;51.992;4.206;2023-03-14T14:27:19;14.40;;;3.03;;
58615;SDS011;44385;51.992;4.206;2023-03-14T14:29:56;9.40;;;2.25;;
58615;SDS011;44385;51.992;4.206;2023-03-14T14:32:25;9.38;;;2.08;;
58615;SDS011;44385;51.992;4.206;2023-03-14T14:34:58;7.55;;;1.73;;
58615;SDS011;44385;51.992;4.206;2023-03-14T14:37:26;8.95;;;2.05;;
58615;SDS011;44385;51.992;4.206;2023-03-14T14:39:53;5.13;;;1.50;;
58615;SDS011;44385;51.992;4.206;2023-03-14T14:42:21;10.18;;;1.67;;
58615;SDS011;44385;51.992;4.206;2023-03-14T14:44:51;7.78;;;1.60;;
58615;SDS011;44385;51.992;4.206;2023-03-14T14:47:18;7.47;;;1.45;;
58615;SDS011;44385;51.992;4.206;2023-03-14T14:49:48;8.75;;;1.60;;
58615;SDS011;44385;51.992;4.206;2023-03-14T14:52:16;8.85;;;1.98;;
58615;SDS011;44385;51.992;4.206;2023-03-14T14:54:43;9.57;;;1.90;;
58615;SDS011;44385;51.992;4.206;2023-03-14T14:57:17;11.77;;;1.65;;
58615;SDS011;44385;51.992;4.206;2023-03-14T14:59:44;8.43;;;1.55;;
58615;SDS011;44385;51.992;4.206;2023-03-14T15:02:23;8.82;;;1.70;;
58615;SDS011;44385;51.992;4.206;2023-03-14T15:04:52;8.75;;;1.60;;